METARS
Date METAR Location Area
27/07/2015 LG1B 272030Z 20302KT 27/17 Q1006 Arsakeio Athens
28/07/2015 LGY7 281630Z 15805KT 34/17 Q1004 Aegina Attica
28/07/2015 LG37 281700Z 1126102G13878KT 302/213 Q10039 Agia Paraskeyi Attica
27/07/2015 LG5C 271630Z 13507KT 29/20 Q1006 Alimos Attica
26/07/2015 LGH5 261630Z 18003KT 33/22 Q1006 Ampelokipoi Attica
28/07/2015 LGS5 281630Z 15804KT 29/24 Q1005 Anavissos Attica
28/07/2015 LGO0 281630Z 11302KT 32/19 Q1006 Ano Liosia Attica
28/07/2015 LG9B 281630Z 24803KT 32/21 Q1005 Aspropirgos Attica
28/07/2015 LGB9 281630Z 22502KT 32/21 Q1006 Athens - Gazi Attica
28/07/2015 LGL5 281730Z 18001KT 33/16 Q1009 Ekali Attica
28/07/2015 LGS3 281630Z 15804KT 30/21 Q1005 Faliro Attica
28/07/2015 LGM3 281630Z 31502KT 31/24 Q1006 Hydra Attica
28/07/2015 LGI4 281700Z 00000G31104KT 309/233 Q10052 Hydra Attica
20/07/2015 LGO2 201730Z 29302KT 19/10 Q1009 Imittos Attica
28/07/2015 LGT8 281630Z 06800KT 29/18 Q1006 Ippokratios Attica
28/07/2015 LG99 281630Z 02302KT 31/20 Q1006 Kantza Attica
28/07/2015 LG13 280545Z 00000KT 29/19 Q1006 Kifissia Attica
28/07/2015 LG3C 281630Z 15803KT 31/18 Q1004 Korydallos Attica
28/07/2015 LGD6 281630Z 18004KT 32/21 Q1004 Lavrio Attica
28/07/2015 LGK0 281630Z 15802KT 33/18 Q1005 Marousi Attica
28/07/2015 LG00 281710Z 13005KT 30/17 Q1006 Marousi (Anavrita) Attica
28/07/2015 LGR0 281630Z 22502KT 32/20 Q1005 Nea Smirni Attica
28/07/2015 LGM8 281630Z 20300KT 33/22 Q1006 Neos Kosmos Attica
28/07/2015 LGA3 281710Z 00000KT 30/18 Q1006 Pallini - Kantza 2 Attica
28/07/2015 LGK3 281630Z 13503KT 24/15 Q1005 Parnitha 1230 EAA Attica
28/07/2015 LGT6 281630Z 27001KT 32/19 Q1006 Patissia Attica
28/07/2015 LGX9 281630Z 13507KT 29/17 Q1003 Penteli Attica
28/07/2015 LG67 281700Z 1352592G7830KT 306/208 Q10056 Penteli Attica
28/07/2015 LG6D 281630Z 13503KT 31/21 Q1005 Perama Attica
28/07/2015 LGU0 281630Z 24806KT 31/19 Q1006 Peristeri Attica
28/07/2015 LGY6 281630Z 09005KT 29/23 Q1006 Porto Rafti Attica
28/07/2015 LG96 281630Z 11303KT 32/20 Q1006 Psychico Attica
28/07/2015 LGZ0 281630Z 13503KT 30/21 Q1005 Rafina Attica
28/07/2015 LG2B 281630Z 20309KT 29/23 Q1005 SEF Attica
28/07/2015 LGG2 281730Z 06803KT 31/20 Q1004 Spata Attica
28/07/2015 LGS6 281630Z 13505KT 29/25 Q1005 Spetses Attica
28/07/2015 LG3B 281630Z 06803KT 33/18 Q1006 Tatoi Attica
28/07/2015 LGZ2 281630Z 13503KT 31/21 Q1006 Vari Attica
28/07/2015 LGR6 281630Z 24803KT 31/17 Q1005 Vilia Attica
28/07/2015 LG1D 281630Z 13504KT 32/18 Q1006 Vrilissia Attica
28/07/2015 LG74 280400Z 00000KT 273/206 Q10045 Ymittos Attica
28/07/2015 LGG1 281700Z 00000G3456KT 305/213 Q332 Kalivia Thorikou Attica E
28/07/2015 LG45 281630Z 09004KT 31/24 Q1007 Markopoulo Attica E
28/07/2015 LG72 281700Z 00000KT 328/216 Q10028 Keratea Attica SE
24/07/2015 LGW4 241630Z 20303KT 26/14 Q 998 Ag. Ioannis Sfakion Crete
28/07/2015 LGJ9 281630Z 11303KT 28/25 Q1006 Aghios Nikolaos Crete
28/07/2015 LGT4 281730Z 33804KT 32/22 Q1005 Alikianos Crete
28/07/2015 LGB6 281630Z 31503KT 28/18 Q1003 Anogeia Crete
28/07/2015 LGZ6 281630Z 00002KT 27/19 Q1007 Askyfou Crete
28/07/2015 LG25 281730Z 00002KT 31/23 Q1005 Chania Crete
24/07/2015 LGN3 240930Z 02304KT 26/22 Q1010 Chania Center Crete
28/07/2015 LG61 281630Z 09003KT 28/25 Q1005 Cost - Irakleio Crete
28/07/2015 LG2C 281730Z 04501KT 28/19 Q1007 Elos Crete
21/07/2015 LGL9 212330Z 02303KT 27/13 Q1007 Falasarna Crete
28/07/2015 LG9A 281630Z 27010KT 29/20 Q1004 Finokalia - Lasithi Crete
28/07/2015 LGL1 281730Z 27004KT 30/17 Q1004 Fourfouras Crete
23/07/2015 LGD4 231030Z 00010KT 29/18 Q1008 Fragmapotamon - Rethymno Crete
28/07/2015 LG30 281630Z 06803KT 29/24 Q1006 Heraklion - Knossos Crete
28/07/2015 LG95 281630Z 24803KT 29/24 Q1007 Ierapetra Crete
28/07/2015 LGP0 281630Z 24803KT 30/23 Q1004 Lentas Hrakleion Crete
28/07/2015 LGD7 281430Z 27003KT 34/18 Q1005 Metaxochori - Heraklion Crete
28/07/2015 LGI2 281630Z 22503KT 29/24 Q1005 Mires Crete
28/07/2015 LG36 281630Z 33800KT 31/22 Q1004 Paleochora Crete
22/07/2015 LG8A 222230Z 04503KT 23/17 Q1007 Pirathi Heraklion Crete
28/07/2015 LG58 281630Z 02300KT 29/24 Q1004 Rethymno Crete
28/07/2015 LGT2 281630Z 33801KT 29/25 Q1005 Rethymno - Plakia Crete
28/07/2015 LGB4 281630Z 00002KT 24/18 Q1005 Samaria Crete
28/07/2015 LGY1 281630Z 00000KT 29/14 Q1006 Samaria Crete
28/07/2015 LGM2 281630Z 33802KT 30/24 Q1004 Sitia Crete
28/07/2015 LG75 281630Z 02302KT 31/17 Q1007 Spili - Rethymnon Crete
28/07/2015 LG8B 281630Z 33802KT 29/23 Q1006 Stavrakia - Heraclion Crete
28/07/2015 LG50 281630Z 33802KT 27/17 Q1006 Tzermiado Lasithi Crete
28/07/2015 LG7B 281630Z 27003KT 30/20 Q1006 Vagionia - Heraklion Crete
28/07/2015 LG70 281630Z 09003KT 29/22 Q1005 Vrysses Crete
28/07/2015 LGT5 281630Z 24800KT 30/22 Q1005 Amorgos Cyclades
28/07/2015 LGN6 281630Z 24801KT 31/20 Q1006 Andros Cyclades
28/07/2015 LGS7 281630Z 02310KT 29/17 Q1005 Donoussa Cyclades
28/07/2015 LGI0 281630Z 29303KT 30/21 Q1006 Ios Cyclades
28/07/2015 LGP2 281630Z 33801KT 30/20 Q1007 Ioulida - Kea Cyclades
28/07/2015 LGP5 281630Z 00000KT 30/21 Q1005 Iraklia Cyclades
28/07/2015 LGE3 281730Z 00000KT 28/21 Q1006 Kea Cyclades
28/07/2015 LGX8 281630Z 02301KT 30/20 Q1005 Koufonissia Cyclades
28/07/2015 LGS0 281630Z 27003KT 32/21 Q1006 Milos Cyclades
28/07/2015 LG66 281630Z 20302KT 31/19 Q1005 Mykonos Cyclades
28/07/2015 LGM0 281630Z 00006KT 30/20 Q1006 Naxos Cyclades
28/07/2015 LGV3 281630Z 27004KT 28/19 Q1005 Naxos - Apiranthos Cyclades
28/07/2015 LGT0 281630Z 31502KT 29/17 Q1006 Naxos - Apollonas Cyclades
28/07/2015 LGU1 281630Z 27002KT 33/14 Q1005 Naxos - Damarionas Cyclades
28/07/2015 LGU2 281630Z 13500KT 28/15 Q1005 Naxos - Koronos Cyclades
28/07/2015 LGN7 281630Z 29303KT 31/18 Q1007 Naxos - Kynidaros Cyclades
28/07/2015 LGW1 281130Z 29305KT 32/19 Q1006 Naxos - Melanes Cyclades
28/07/2015 LGO7 281630Z 02303KT 28/24 Q1005 Naxos - Mikri Vigla Cyclades
28/07/2015 LG02 281630Z 31504KT 29/24 Q1006 Paros Cyclades
28/07/2015 LGX5 281630Z 27003KT 30/20 Q1004 Santorini Cyclades
28/07/2015 LGX7 281630Z 00003KT 30/17 Q1005 Schinoussa Cyclades
17/06/2015 LG07 171830Z 00000KT 261/94 Q10040 Tinos Cyclades
28/07/2015 LGB8 281630Z 20300KT 31/21 Q1006 Tinos NOA Cyclades
28/07/2015 LGAB 280930Z 31503KT 32/16 Q1003 Emponas - Rhodes Dodecanese
28/07/2015 LGG6 281630Z 29304KT 30/18 Q1006 Kalymnos Dodecanese
28/07/2015 LGAC 281730Z 31511KT 28/20 Q1003 Kattavia - Rhodes Dodecanese
28/07/2015 LGAA 281730Z 33803KT 31/26 Q1004 Lindos - Rhodes Dodecanese
28/07/2015 LG65 281630Z 02300KT 31/21 Q1005 Patmos Dodecanese
28/07/2015 LGS9 281630Z 24803KT 29/22 Q1006 Rhodes Dodecanese
26/07/2015 LGM5 260230Z 00000KT 00/00 Q 0 Kasos Dodecanisa
28/07/2015 LGX1 281630Z 27003KT 32/18 Q1004 Kos Dodekanissa
27/07/2015 LG6C 271230Z 00008KT 34/16 Q1005 Chios Town East Aegean
28/07/2015 LGT1 281630Z 33807KT 31/17 Q1004 Fournoi East Aegean
28/07/2015 LGI9 281630Z 00000KT 31/14 Q1004 Ikaria East Aegean
28/07/2015 LGI5 281630Z 02302KT 33/16 Q1004 Lemnos East Aegean
18/07/2015 LGI6 181530Z 00010G23KT 30/13 Q1010 Lesvos East Aegean
28/07/2015 LGJ3 281630Z 33807KT 35/16 Q1006 Lesvos - Thermi East Aegean
20/07/2015 LGZ7 201530Z 33807KT 18/07 Q1018 Mantamados East Aegean
28/07/2015 LGY5 281630Z 22502KT 30/13 Q1006 Molyvos East Aegean
28/07/2015 LGF1 281730Z 33800KT 31/18 Q1003 Samos East Aegean
28/07/2015 LG2D 281630Z 31505G16KT 32/12 Q1004 Agia Paraskeui Lesvos East Aegen
28/07/2015 LGW7 281630Z 20303KT 32/19 Q1005 Akrotirio Paksimada Evia
28/07/2015 LGO3 281730Z 11304KT 34/18 Q1003 Chalkida Evia
28/07/2015 LGR5 281630Z 33802KT 29/13 Q1005 Kavodoro Evia
09/07/2015 LGY0 090700Z 11300KT 09/05 Q1034 Krieza Evia
28/07/2015 LGX0 281630Z 18000KT 30/19 Q1007 Kymi Evia
09/07/2015 LGT7 091700Z 00000KT 17/12 Q1014 Setta Evia
28/07/2015 LG81 281630Z 02303KT 30/20 Q1004 Steni Evia
27/07/2015 LGC4 271730Z 00000KT 28/24 Q1006 Styra Evia
28/07/2015 LGD3 281630Z 06803KT 28/21 Q1006 Zarakes Evia
28/07/2015 LGP6 281630Z 18003KT 29/22 Q1007 Agia Kyriaki Ioanninon Hepirus
28/07/2015 LGO1 281630Z 18001KT 35/21 Q1004 Aridaia Hepirus
28/07/2015 LGD2 281730Z 18004KT 30/25 Q1006 Arta - Kompoti Hepirus
22/07/2015 LG38 221630Z 00003KT 35/15 Q1008 Arta - Vlacherna Hepirus
28/07/2015 LGE4 281130Z 20301KT 31/12 Q1006 Aspraggeloi Hepirus
28/07/2015 LGI3 281630Z 20303KT 30/21 Q1006 Derviziana Hepirus
28/07/2015 LGP4 281630Z 29303KT 31/19 Q1005 Dodoni Hepirus
02/07/2015 LGL8 021430Z 02304KT 24/07 Q1015 Grammos Hepirus
28/07/2015 LG43 281730Z 22503KT 34/17 Q1006 Igoumenitsa Hepirus
28/07/2015 LG49 281530Z 29303KT 33/20 Q1004 Ioannina Anatoli Hepirus
28/07/2015 LGK1 281630Z 33801KT 31/25 Q1006 Kanali, Preveza Hepirus
28/07/2015 LGE0 281630Z 20303KT 25/22 Q1007 Katarraktis - Arta Hepirus
28/07/2015 LGO5 281630Z 29305KT 29/13 Q1004 Kerasovo Konitsa Hepirus
28/07/2015 LG3A 281630Z 22502KT 34/18 Q1006 Konitsa Hepirus
28/07/2015 LGO8 281730Z 00002KT 25/15 Q1006 Metsovo Hepirus
28/07/2015 LGK6 281530Z 13501KT 28/16 Q1006 Papigo Hepirus
28/07/2015 LGF6 281430Z 20309KT 29/21 Q1006 Paramythia Hepirus
28/07/2015 LGK9 281630Z 22503KT 32/24 Q1008 Parga Hepirus
28/07/2015 LGK7 281230Z 20305KT 32/19 Q1006 Pesta Hepirus
28/07/2015 LGY9 281530Z 29301KT 27/14 Q1002 Plikati Ioanninon Hepirus
28/07/2015 LGP1 281630Z 18003KT 27/22 Q1006 Pramanta Hepirus
28/07/2015 LGK2 281530Z 13503KT 26/19 Q1005 Theodoriana, Arta Hepirus
28/07/2015 LGD0 281630Z 27001KT 27/17 Q1005 Tristeno - Ioannina Hepirus
28/07/2015 LGM4 281630Z 13501KT 32/21 Q1005 Tyria Hepirus
28/07/2015 LGR8 281630Z 18000KT 27/20 Q1007 Vourgareli Artas Hepirus
28/07/2015 LGN9 281530Z 13502KT 29/14 Q1006 Vovoussa Hepirus
28/07/2015 LGN0 281630Z 22503KT 29/18 Q1005 Zitsa Hepirus
28/07/2015 LGJ2 281630Z 31505KT 34/16 Q1006 Corfu - Gouvia Ionio
28/07/2015 LGB0 281630Z 29304G16KT 30/22 Q1006 Ithaki Ionio
28/07/2015 LGI7 281630Z 27009KT 31/23 Q1008 Lefkada Ionio
28/07/2015 LGN1 281630Z 29308KT 30/22 Q1005 Paxoi Ionio
28/07/2015 LGN4 281630Z 33803KT 32/19 Q1005 Zakynthos Ionio
28/07/2015 LGG9 281630Z 02303KT 33/11 Q1003 Amynteo Macedonia
25/07/2015 LG33 250930Z 13505KT 27/16 Q1008 Chalkidiki - Polygyros Macedonia
27/07/2015 LGJ1 271030Z 09005KT 30/21 Q1007 Chalkidiki - Stratoni Macedonia
28/07/2015 LGZ5 281630Z 00000KT 37/18 Q1004 Didymoteicho Macedonia
28/07/2015 LG55 281730Z 09001KT 31/20 Q1004 Dion Macedonia
28/07/2015 LGU8 281630Z 13503KT 33/19 Q1004 Doxato - Drama Macedonia
28/07/2015 LGH3 281650Z 19502KT 33/20 Q1005 Drama Macedonia
28/07/2015 LGH6 281730Z 13505KT 33/20 Q1004 Drama 2 Macedonia
28/07/2015 LGY3 281630Z 15804KT 34/19 Q1005 Eleutheroupoli Macedonia
18/07/2015 LGJ6 181050Z 16812KT 08/02 Q1011 Falakro Macedonia
28/07/2015 LG63 281730Z 31502KT 30/17 Q1007 Florina Macedonia
28/07/2015 LGZ8 281630Z 22501KT 33/21 Q1005 Fotolivos Macedonia
28/07/2015 LG73 281630Z 11301KT 32/20 Q1004 Giannitsa Macedonia
28/07/2015 LGF2 281630Z 02300KT 34/15 Q1004 Grevena Macedonia
28/07/2015 LGO4 281630Z 11308KT 28/17 Q1006 Hmathia - Rizomata Macedonia
28/07/2015 LG7D 281630Z 29300KT 32/18 Q1004 Iera Moni Megistis Lauras Macedonia
28/07/2015 LG93 281630Z 04502KT 18/12 Q1008 Kaimaktsalan Macedonia
28/07/2015 LG4D 281630Z 11304KT 31/20 Q1004 Kalampaki Drama Macedonia
28/07/2015 LGO9 281630Z 09002KT 33/23 Q1005 Kassandreia (Xalkidiki) Macedonia
28/07/2015 LGC0 281630Z 33802KT 33/14 Q1003 Kastoria Macedonia
28/07/2015 LG27 281650Z 18200KT 31/17 Q1006 Kavala - Dexameni Macedonia
05/07/2015 LGA2 052147Z 00000KT 01/00 Q1022 Kavala - Eleftheroupoli Macedonia
28/07/2015 LG5D 281630Z 18003KT 29/17 Q1006 Kerasia Edessas Macedonia
28/07/2015 LG42 281630Z 20306KT 32/17 Q1003 Kilkis Macedonia
28/07/2015 LGW8 281630Z 15804KT 34/23 Q1005 Kimisi Macedonia
28/07/2015 LGJ4 281630Z 00003KT 33/13 Q1006 Kozani - Ardassa Macedonia
28/07/2015 LGP3 281630Z 11300KT 22/16 Q1006 Lailias - Serres Macedonia
28/07/2015 LGZ9 281630Z 33802KT 35/10 Q1004 Mavropigi Macedonia
28/07/2015 LG3D 281630Z 13503KT 32/22 Q1005 Mikrokampos Drama Macedonia
28/07/2015 LG40 281630Z 11300KT 33/17 Q1005 Naousa Macedonia
28/07/2015 LG4B 281630Z 20302KT 32/19 Q1005 Nea Peramos Macedonia
28/07/2015 LGZ4 281730Z 20301KT 31/23 Q1005 Neos Marmaras Macedonia
28/07/2015 LG48 281630Z 13503KT 31/19 Q1005 Nevrokopi Drama Macedonia
28/07/2015 LGS4 281630Z 33803KT 33/11 Q1003 Notio Pedio - Eordea Macedonia
28/07/2015 LGW0 281630Z 06803KT 33/19 Q1005 Paranesti Macedonia
28/07/2015 LG26 281630Z 00003KT 33/10 Q1002 Ptolemaida Macedonia
28/07/2015 LG87 281630Z 11303KT 23/15 Q1006 Seli Ski Center Macedonia
28/07/2015 LGW6 281630Z 06805KT 34/19 Q1005 Serres Macedonia
11/07/2015 LGD9 111330Z 00001KT 32/14 Q1013 Serres - Kerkini Macedonia
28/07/2015 LG14 280300Z 00000G31104KT 237/157 Q10049 Serres - Proti Macedonia
28/07/2015 LG5B 281630Z 09002KT 31/23 Q1005 Thasos Macedonia
07/07/2015 LGY8 071419Z 31505KT 9999 SCT036 10/00 Q1010 Thassos Macedonia
28/07/2015 LGR9 281630Z 22501KT 34/22 Q1005 Thessaloniki Macedonia
28/07/2015 LGF0 281630Z 27000KT 28/17 Q1004 Variko Macedonia
16/07/2015 LG82 160630Z 27009KT 06/01 Q1022 Vassilitsa Macedonia
28/07/2015 LGC2 280930Z 02303KT 31/24 Q1005 Vatopedi - Athos Macedonia
28/07/2015 LGE9 281530Z 11306KT 32/17 Q1006 Vegoritida Macedonia
28/07/2015 LGE5 281630Z 09001KT 34/21 Q1001 Veroia Macedonia
28/07/2015 LG98 281530Z 22500KT 28/11 Q1006 Vlasti - Kozani Macedonia
02/07/2015 LGF5 020200Z 17500KT 10/08 Q1012 Vounochori - Kavala Macedonia
28/07/2015 LGU5 281630Z 11303KT 33/19 Q1004 Agioi Theodoroi Peloponissos
28/07/2015 LGU7 281230Z 22503KT 33/15 Q1005 Alagonia - Messinia Peloponissos
28/07/2015 LG52 281630Z 31504KT 32/23 Q1005 Amaliada Peloponissos
28/07/2015 LG77 281630Z 00002KT 26/22 Q1006 Andritsaina Peloponissos
28/07/2015 LGU6 281630Z 33803KT 32/21 Q1006 Arfara - Messinia Peloponissos
28/07/2015 LGT3 281630Z 20301KT 31/21 Q1006 Argos Peloponissos
28/07/2015 LGV0 281530Z 27003KT 31/23 Q1004 Derveni Peloponissos
28/07/2015 LGK4 280630Z 15801KT -RA 03/02 Q1021 Elati Peloponissos
28/07/2015 LGC3 281630Z 29304KT 28/19 Q1005 Foloi - Ilia Peloponissos
28/07/2015 LGX6 281630Z 15805KT 32/16 Q1006 Geraki Peloponissos
28/07/2015 LGB7 281630Z 31503KT 29/24 Q1006 Ilia - Vartholomio Peloponissos
28/07/2015 LG85 281630Z 27005KT 30/25 Q1004 Isthmos Peloponissos
28/07/2015 LG6A 281530Z 22503KT 33/21 Q1006 Kalamata Peloponissos
28/07/2015 LGV7 281630Z 15802KT 29/18 Q1006 Kalavryta Peloponissos
28/07/2015 LGZ3 281630Z 18009KT 30/24 Q1005 Kardamyli Peloponissos
27/06/2015 LG0C 272330Z 04502KT 19/10 Q1011 Kastritsi Peloponissos
28/07/2015 LGJ5 281630Z 33812KT 29/25 Q 909 Katakolo Peloponissos
28/07/2015 LGP7 281730Z 31503KT 27/19 Q1006 Kato Vlassia Peloponissos
27/07/2015 LGB2 272000Z 20301KT 27/23 Q1011 Katoachaia Peloponissos
18/07/2015 LGB5 181500Z 00000KT 22/19 Q1012 Kavomalias Peloponissos
24/07/2015 LG8D 240930Z 04502KT 32/17 Q1008 Kiato Peloponissos
28/07/2015 LGM7 281630Z 13504KT 30/20 Q1006 Kranidi Peloponissos
28/07/2015 LGV1 281630Z 27002KT 30/25 Q1007 Kyparissia Peloponissos
25/07/2015 LGW9 250930Z 18003KT 26/16 Q1009 Lagadia Peloponissos
28/07/2015 LG0A 281530Z 24802KT 29/15 Q1006 Lampia - Ilia Peloponissos
28/07/2015 LG92 281630Z 29303KT 31/22 Q1004 Lappa-Larissos-Achaia Peloponissos
21/07/2015 LG4C 210630Z 02302KT 29/13 Q1009 Levidi Peloponissos
07/07/2015 LG91 070630Z 00000KT 21/15 Q1012 Lousika-Olenias-Achaia Peloponissos
28/07/2015 LGV4 281630Z 31501KT 29/13 Q1006 Lykochia Peloponissos
28/07/2015 LGG5 281630Z 27003KT 31/20 Q1006 Megalopoli Peloponissos
28/07/2015 LGV2 281630Z 27004KT 28/22 Q1007 Messinia - Kopanaki Peloponissos
28/07/2015 LGF8 281630Z 22505KT 32/16 Q1005 Molaoi Peloponissos
28/07/2015 LG56 281630Z 00005KT 31/24 Q1005 Monemvasia Peloponissos
28/07/2015 LGE1 281630Z 13504KT 32/19 Q1004 Nemea Peloponissos
28/07/2015 LGD5 281630Z 31502KT 32/21 Q1005 Oleni - Ilia Peloponissos
28/07/2015 LGB3 281630Z 27000KT 35/21 Q1005 Olympia Peloponissos
28/07/2015 LGV6 281630Z 22503KT 23/11 Q1006 Panachaiko Oros Peloponissos
28/07/2015 LGZ1 281630Z 22507KT 31/21 Q1005 Patra Peloponissos
26/07/2015 LG79 252305Z 00000G31104KT 266/215 Q10094 Patra - Agia Peloponissos
28/07/2015 LG71 281700Z 00000G3456KT 313/229 Q10058 Patra - Drosia Peloponissos
28/07/2015 LG84 281630Z 24810KT 29/25 Q1006 Patra - Port Peloponissos
04/07/2015 LGG7 040300Z 00000KT 19/14 Q1019 Pinia Peloponissos
28/07/2015 LG59 281730Z 29304KT 32/21 Q1005 Pirgos Peloponissos
28/07/2015 LGH8 281630Z 22509KT 30/24 Q1005 Rio Peloponissos
28/07/2015 LGT9 281730Z 22503KT 30/20 Q1005 Romanos - Patra Peloponissos
28/07/2015 LGA0 281730Z 27004KT 31/22 Q1004 Sagaiika Peloponissos
28/07/2015 LGF7 281630Z 11303KT 33/20 Q1007 Sparti Peloponissos
28/07/2015 LGS2 281630Z 24801KT 25/19 Q1006 Stemnitsa Peloponissos
28/07/2015 LGR1 281630Z 33803KT 26/16 Q1003 Trikala Korinthias Peloponissos
28/07/2015 LG83 281730Z 20300KT 30/20 Q1005 Tripoli Peloponissos
28/07/2015 LGU9 281630Z 24800KT 26/19 Q1006 Vytina Peloponissos
28/07/2015 LG86 281630Z 15802KT 31/25 Q1006 Zaxaro Peloponissos
28/07/2015 LGN2 281630Z 09003KT 29/24 Q1008 Alonissos Sporades
28/07/2015 LGI1 281630Z 31501KT 30/22 Q1006 Skyros Sporades
28/07/2015 LGH9 281630Z 27003KT 35/19 Q1008 Agrinio Sterea Ellada
28/07/2015 LGC7 281630Z 27002KT 33/24 Q1005 Aitoliko Sterea Ellada
28/07/2015 LG29 281730Z 22501KT 32/18 Q1003 Amfiklia Sterea Ellada
28/07/2015 LGH1 280500Z 00000G31104KT 248/165 Q10052 Amfiklia 2 Sterea Ellada
21/07/2015 LGG8 211330Z 02314KT 34/19 Q1012 Antikira Sterea Ellada
28/07/2015 LG97 281715Z 00000KT 28/13 Q1005 Arachova Sterea Ellada
28/07/2015 LGC5 281630Z 00000KT 27/15 Q1007 Arahova Sterea Ellada
28/07/2015 LGH0 281630Z 09006KT 32/18 Q1003 Avlida Sterea Ellada
28/07/2015 LGR2 281630Z 24812KT 31/19 Q1004 Dam of Mornos Sterea Ellada
22/07/2015 LGR3 220630Z 33803G15KT 27/15 Q1010 Diakopi of Lidoriki Sterea Ellada
28/07/2015 LGW5 281630Z 09002KT 31/20 Q1004 Domokos Sterea Ellada
14/07/2015 LG21 141323Z 24804KT 29/15 Q1014 Evia - Chalkida Sterea Ellada
28/07/2015 LGY4 281630Z 33803KT 35/19 Q1005 Galaxidi Sterea Ellada
28/07/2015 LGC8 281700Z 2472592G7830KT 331/216 Q10042 Gavalou - Aitol/nia Sterea Ellada
28/07/2015 LGJ7 281630Z 15812KT 33/17 Q1005 Kaparelli Sterea Ellada
28/07/2015 LGC9 281630Z 29301KT 29/18 Q1007 Karpenisi Sterea Ellada
28/07/2015 LGP9 281630Z 11307KT 34/15 Q1003 Kleidi Viotias Sterea Ellada
28/07/2015 LGR4 281630Z 27000KT 28/18 Q1005 Koniakos of Lidoriki Sterea Ellada
28/07/2015 LG5A 281630Z 09008KT 35/19 Q1003 Kopaida Sterea Ellada
28/07/2015 LGV9 281530Z 09005KT 33/22 Q1003 Lamia Sterea Ellada
27/07/2015 LGJ8 271330Z 09001KT 36/20 Q1003 Lefkochori Sterea Ellada
28/07/2015 LGI8 281630Z 09001KT 35/21 Q1005 Livadeia Sterea Ellada
28/07/2015 LGE7 281630Z 09000KT 33/23 Q1002 Makrakomi Sterea Ellada
28/07/2015 LGA6 281630Z 04500KT 28/15 Q1004 Mavrolithari - Vardousia Sterea Ellada
28/07/2015 LGK8 281730Z 27003KT 28/17 Q1003 Myriki Sterea Ellada
20/07/2015 LGG4 202130Z 09002KT 22/12 Q1009 Orini Nafpaktia Sterea Ellada
20/07/2015 LGA4 200900Z 22502G16KT 01/01 Q1009 Parnassos Sterea Ellada
18/07/2015 LGF9 180830Z 00000KT 07/M04 Q1016 Parnassos1950 Sterea Ellada
28/07/2015 LGL0 281630Z 27003KT 34/15 Q1004 Polydroso Sterea Ellada
07/07/2015 LGR7 071230Z 04508KT 11/09 Q1025 Prasino - Viotia Sterea Ellada
28/07/2015 LG69 281730Z 09010KT 34/15 Q1004 Tanagra Sterea Ellada
28/07/2015 LGO6 281630Z 04508KT 32/23 Q1005 Theologos Sterea Ellada
28/07/2015 LG94 281630Z 00000KT 308/213 Q10047 Hortiatis Thes/niki
28/07/2015 LG15 281713Z 23305KT 33/06 Q1011 Kamara Thes/niki Thes/niki
28/07/2015 LGA5 281430Z 22501KT 36/20 Q1004 Lagadas Thes/niki
28/07/2015 LG7C 281130Z 22503KT 33/23 Q1006 Nea Michaniona Thes/niki
28/07/2015 LG8C 281630Z 18003KT 31/22 Q1005 Sindos Thes/niki
24/07/2015 LG11 240730Z 12901KT 10/06 Q1006 West Thes/niki Thes/niki
12/07/2015 LGV5 120530Z 09001KT 20/15 Q1012 Tsamantas Thesprotia
28/07/2015 LGL4 281630Z 31502KT 27/15 Q1006 Gardiki Thessalia
28/07/2015 LGW3 281630Z 13501KT 35/17 Q1002 Kalabaka Thessalia
28/07/2015 LG2A 281630Z 00000KT 35/21 Q1004 Karditsa Thessalia
28/07/2015 LGU3 281700Z 292864G2592KT 352/188 Q10024 Larissa Thessalia
28/07/2015 LG41 281700Z 0903456G8694KT 341/156 Q10028 Larissa Thessalia
26/07/2015 LGL6 262130Z 00000KT 29/18 Q1006 Larissa Thessalia
28/07/2015 LGS8 281630Z 06803KT 33/18 Q1004 Larissa - Agia Thessalia
30/06/2015 LGL7 300900Z 04503KT 19/15 Q1013 Limni Plastira Thessalia
28/07/2015 LG6B 281730Z 09006KT 30/19 Q1002 Moni Paou Thessalia
26/07/2015 LGU4 260700Z 29304KT 04/M07 Q1013 Olympos Thessalia
28/07/2015 LG7A 281700Z 1808694G13014KT 319/208 Q10053 Pedio Areos Volou Thessalia
27/07/2015 LGE2 271330Z 22503KT 28/13 Q1005 Pertouli Thessalia
28/07/2015 LGY2 281630Z 18003KT 30/19 Q1004 Portaria - Pelio Thessalia
28/07/2015 LG80 281630Z 11303KT 31/24 Q1009 Skopelos - Sporades Thessalia
28/07/2015 LG24 281730Z 20302KT 30/24 Q1005 Sporades - Skiathos Thessalia
28/07/2015 LG57 281630Z 18000KT 35/17 Q1004 Trikala Thessalia
28/07/2015 LG51 281630Z 22503KT 32/26 Q1003 Volos Thessalia
28/07/2015 LGG3 281630Z 22501KT 29/19 Q1007 Zagora EAA Thessalia
28/07/2015 LGD8 281630Z 24803KT 31/18 Q1005 Alexandroupolis Thraki
28/07/2015 LGM9 281630Z 20302KT 30/21 Q1004 Imeros Thraki
10/07/2015 LG35 102238Z 10600KT 06/01 Q1026 Komotini Thraki
28/07/2015 LGL2 281630Z 22501KT 35/19 Q1005 Metaxades - Evros Thraki
28/07/2015 LG31 281530Z 20301KT 36/18 Q1004 Orestiada Thraki
28/07/2015 LGC1 281630Z 31503KT 31/20 Q1006 Samothraki Thraki
28/07/2015 LGC6 281630Z 18001KT 34/23 Q1005 Xanthi Thraki
www.meteorologia.gr